sensor_id;sensor_type;location;lat;lon;timestamp;pressure;altitude;pressure_sealevel;temperature;humidity
46379;BME280;32084;42.254;22.744;2023-06-14T00:01:46;94929.13;;;16.61;100.00
46379;BME280;32084;42.254;22.744;2023-06-14T00:04:13;94931.84;;;16.74;100.00
46379;BME280;32084;42.254;22.744;2023-06-14T00:06:39;94920.47;;;16.85;100.00
46379;BME280;32084;42.254;22.744;2023-06-14T00:09:05;94916.53;;;16.88;100.00
46379;BME280;32084;42.254;22.744;2023-06-14T00:11:34;94919.38;;;16.73;100.00
46379;BME280;32084;42.254;22.744;2023-06-14T00:14:00;94921.63;;;16.56;100.00
46379;BME280;32084;42.254;22.744;2023-06-14T00:16:26;94914.16;;;16.58;100.00
46379;BME280;32084;42.254;22.744;2023-06-14T00:18:52;94907.25;;;16.42;100.00
46379;BME280;32084;42.254;22.744;2023-06-14T00:21:18;94907.25;;;16.42;100.00
46379;BME280;32084;42.254;22.744;2023-06-14T00:23:45;94914.13;;;16.51;100.00
46379;BME280;32084;42.254;22.744;2023-06-14T00:26:11;94902.94;;;16.54;100.00
46379;BME280;32084;42.254;22.744;2023-06-14T00:28:37;94905.03;;;16.52;100.00
46379;BME280;32084;42.254;22.744;2023-06-14T00:31:03;94900.00;;;16.36;100.00
46379;BME280;32084;42.254;22.744;2023-06-14T00:33:29;94894.38;;;16.31;100.00
46379;BME280;32084;42.254;22.744;2023-06-14T00:35:56;94890.84;;;16.37;100.00
46379;BME280;32084;42.254;22.744;2023-06-14T00:38:22;94886.91;;;16.33;100.00
46379;BME280;32084;42.254;22.744;2023-06-14T00:40:48;94886.25;;;16.24;100.00
46379;BME280;32084;42.254;22.744;2023-06-14T00:43:14;94879.00;;;16.25;100.00
46379;BME280;32084;42.254;22.744;2023-06-14T00:45:40;94880.63;;;16.26;100.00
46379;BME280;32084;42.254;22.744;2023-06-14T00:48:06;94880.25;;;16.22;100.00
46379;BME280;32084;42.254;22.744;2023-06-14T00:50:33;94879.34;;;16.08;100.00
46379;BME280;32084;42.254;22.744;2023-06-14T00:53:00;94884.09;;;15.99;100.00
46379;BME280;32084;42.254;22.744;2023-06-14T00:55:27;94871.06;;;16.03;100.00
46379;BME280;32084;42.254;22.744;2023-06-14T00:57:54;94872.88;;;16.03;100.00
46379;BME280;32084;42.254;22.744;2023-06-14T01:00:21;94869.13;;;15.97;100.00
46379;BME280;32084;42.254;22.744;2023-06-14T01:02:47;94874.31;;;15.92;100.00
46379;BME280;32084;42.254;22.744;2023-06-14T01:05:13;94882.59;;;15.90;100.00
46379;BME280;32084;42.254;22.744;2023-06-14T01:07:43;94879.28;;;15.88;100.00
46379;BME280;32084;42.254;22.744;2023-06-14T01:15:08;94879.16;;;15.33;100.00
46379;BME280;32084;42.254;22.744;2023-06-14T01:17:35;94880.06;;;15.47;100.00
46379;BME280;32084;42.254;22.744;2023-06-14T01:20:02;94878.88;;;15.63;100.00
46379;BME280;32084;42.254;22.744;2023-06-14T01:22:28;94877.63;;;15.59;100.00
46379;BME280;32084;42.254;22.744;2023-06-14T01:24:54;94886.56;;;15.59;100.00
46379;BME280;32084;42.254;22.744;2023-06-14T01:27:23;94882.19;;;15.58;100.00
46379;BME280;32084;42.254;22.744;2023-06-14T01:29:54;94883.00;;;15.52;100.00
46379;BME280;32084;42.254;22.744;2023-06-14T01:32:25;94887.03;;;15.70;100.00
46379;BME280;32084;42.254;22.744;2023-06-14T01:34:52;94886.50;;;15.81;100.00
46379;BME280;32084;42.254;22.744;2023-06-14T01:37:18;94882.34;;;15.78;100.00
46379;BME280;32084;42.254;22.744;2023-06-14T01:39:45;94890.88;;;15.89;100.00
46379;BME280;32084;42.254;22.744;2023-06-14T01:42:11;94889.88;;;15.96;100.00
46379;BME280;32084;42.254;22.744;2023-06-14T01:44:39;94895.28;;;15.96;100.00
46379;BME280;32084;42.254;22.744;2023-06-14T01:47:06;94902.75;;;16.01;100.00
46379;BME280;32084;42.254;22.744;2023-06-14T01:49:35;94899.47;;;16.06;100.00
46379;BME280;32084;42.254;22.744;2023-06-14T01:52:01;94905.28;;;16.09;100.00
46379;BME280;32084;42.254;22.744;2023-06-14T01:54:27;94908.38;;;16.06;100.00
46379;BME280;32084;42.254;22.744;2023-06-14T01:56:54;94907.13;;;16.02;100.00
46379;BME280;32084;42.254;22.744;2023-06-14T01:59:21;94910.25;;;16.06;100.00
46379;BME280;32084;42.254;22.744;2023-06-14T02:01:47;94913.81;;;16.19;100.00
46379;BME280;32084;42.254;22.744;2023-06-14T02:04:13;94914.91;;;16.32;100.00
46379;BME280;32084;42.254;22.744;2023-06-14T02:06:39;94912.88;;;16.47;100.00
46379;BME280;32084;42.254;22.744;2023-06-14T02:09:05;94921.41;;;16.57;100.00
46379;BME280;32084;42.254;22.744;2023-06-14T02:11:31;94920.78;;;16.49;100.00
46379;BME280;32084;42.254;22.744;2023-06-14T02:13:57;94925.56;;;16.53;100.00
46379;BME280;32084;42.254;22.744;2023-06-14T02:16:25;94925.41;;;16.68;100.00
46379;BME280;32084;42.254;22.744;2023-06-14T02:18:54;94927.03;;;16.69;100.00
46379;BME280;32084;42.254;22.744;2023-06-14T02:21:20;94925.78;;;16.65;100.00
46379;BME280;32084;42.254;22.744;2023-06-14T02:23:46;94929.34;;;16.72;100.00
46379;BME280;32084;42.254;22.744;2023-06-14T02:26:12;94925.81;;;16.78;100.00
46379;BME280;32084;42.254;22.744;2023-06-14T02:28:38;94923.75;;;16.81;100.00
46379;BME280;32084;42.254;22.744;2023-06-14T02:31:04;94929.97;;;16.74;100.00
46379;BME280;32084;42.254;22.744;2023-06-14T02:33:30;94930.38;;;16.58;100.00
46379;BME280;32084;42.254;22.744;2023-06-14T02:35:56;94923.28;;;16.57;100.00
46379;BME280;32084;42.254;22.744;2023-06-14T02:38:22;94923.28;;;16.64;100.00
46379;BME280;32084;42.254;22.744;2023-06-14T02:40:48;94924.34;;;16.69;100.00
46379;BME280;32084;42.254;22.744;2023-06-14T02:43:15;94925.16;;;16.56;100.00
46379;BME280;32084;42.254;22.744;2023-06-14T02:45:43;94929.72;;;16.49;100.00
46379;BME280;32084;42.254;22.744;2023-06-14T02:48:09;94921.00;;;16.47;100.00
46379;BME280;32084;42.254;22.744;2023-06-14T02:50:35;94920.78;;;16.49;100.00
46379;BME280;32084;42.254;22.744;2023-06-14T02:53:01;94923.50;;;16.55;100.00
46379;BME280;32084;42.254;22.744;2023-06-14T02:55:28;94927.00;;;16.56;100.00
46379;BME280;32084;42.254;22.744;2023-06-14T02:57:54;94928.47;;;16.52;100.00
46379;BME280;32084;42.254;22.744;2023-06-14T03:00:20;94930.13;;;16.53;100.00
46379;BME280;32084;42.254;22.744;2023-06-14T03:02:46;94932.84;;;16.59;100.00
46379;BME280;32084;42.254;22.744;2023-06-14T03:05:12;94937.63;;;16.64;100.00
46379;BME280;32084;42.254;22.744;2023-06-14T03:07:38;94938.66;;;16.63;100.00
46379;BME280;32084;42.254;22.744;2023-06-14T03:10:09;94935.75;;;16.65;100.00
46379;BME280;32084;42.254;22.744;2023-06-14T03:12:35;94937.84;;;16.63;100.00
46379;BME280;32084;42.254;22.744;2023-06-14T03:15:02;94940.28;;;16.44;100.00
46379;BME280;32084;42.254;22.744;2023-06-14T03:17:28;94938.38;;;16.38;100.00
46379;BME280;32084;42.254;22.744;2023-06-14T03:19:58;94930.91;;;16.40;100.00
46379;BME280;32084;42.254;22.744;2023-06-14T03:22:24;94934.25;;;16.42;100.00
46379;BME280;32084;42.254;22.744;2023-06-14T03:24:51;94937.72;;;16.23;100.00
46379;BME280;32084;42.254;22.744;2023-06-14T03:27:17;94940.38;;;16.16;100.00
46379;BME280;32084;42.254;22.744;2023-06-14T03:29:44;94949.94;;;16.25;100.00
46379;BME280;32084;42.254;22.744;2023-06-14T03:32:10;94953.28;;;16.27;100.00
46379;BME280;32084;42.254;22.744;2023-06-14T03:34:36;94948.50;;;16.29;100.00
46379;BME280;32084;42.254;22.744;2023-06-14T03:37:04;94954.56;;;16.38;100.00
46379;BME280;32084;42.254;22.744;2023-06-14T03:39:30;94956.47;;;16.44;100.00
46379;BME280;32084;42.254;22.744;2023-06-14T03:41:57;94957.72;;;16.48;100.00
46379;BME280;32084;42.254;22.744;2023-06-14T03:44:23;94948.22;;;16.59;100.00
46379;BME280;32084;42.254;22.744;2023-06-14T03:46:49;94962.97;;;16.63;100.00
46379;BME280;32084;42.254;22.744;2023-06-14T03:49:15;94949.25;;;16.58;100.00
46379;BME280;32084;42.254;22.744;2023-06-14T03:51:42;94958.38;;;16.57;100.00
46379;BME280;32084;42.254;22.744;2023-06-14T03:54:08;94951.91;;;16.51;100.00
46379;BME280;32084;42.254;22.744;2023-06-14T03:56:35;94953.38;;;16.54;100.00
46379;BME280;32084;42.254;22.744;2023-06-14T03:59:01;94950.03;;;16.52;100.00
46379;BME280;32084;42.254;22.744;2023-06-14T04:01:28;94955.47;;;16.58;100.00
46379;BME280;32084;42.254;22.744;2023-06-14T04:03:56;94957.59;;;16.70;100.00
46379;BME280;32084;42.254;22.744;2023-06-14T04:06:22;94954.03;;;16.63;100.00
46379;BME280;32084;42.254;22.744;2023-06-14T04:08:51;94949.25;;;16.65;100.00
46379;BME280;32084;42.254;22.744;2023-06-14T04:11:17;94954.13;;;16.89;100.00
46379;BME280;32084;42.254;22.744;2023-06-14T04:13:44;94950.00;;;17.13;100.00
46379;BME280;32084;42.254;22.744;2023-06-14T04:16:10;94954.59;;;17.33;100.00
46379;BME280;32084;42.254;22.744;2023-06-14T04:18:36;94956.66;;;17.44;100.00
46379;BME280;32084;42.254;22.744;2023-06-14T04:21:02;94950.22;;;17.59;100.00
46379;BME280;32084;42.254;22.744;2023-06-14T04:23:28;94955.19;;;17.62;100.00
46379;BME280;32084;42.254;22.744;2023-06-14T04:25:54;94957.06;;;17.61;100.00
46379;BME280;32084;42.254;22.744;2023-06-14T04:28:20;94950.81;;;17.67;100.00
46379;BME280;32084;42.254;22.744;2023-06-14T04:30:51;94956.22;;;17.54;100.00
46379;BME280;32084;42.254;22.744;2023-06-14T04:33:19;94950.44;;;17.44;100.00
46379;BME280;32084;42.254;22.744;2023-06-14T04:35:45;94958.72;;;17.49;100.00
46379;BME280;32084;42.254;22.744;2023-06-14T04:38:13;94955.81;;;17.50;100.00
46379;BME280;32084;42.254;22.744;2023-06-14T04:40:39;94961.84;;;17.52;100.00
46379;BME280;32084;42.254;22.744;2023-06-14T04:43:08;94965.38;;;17.60;100.00
46379;BME280;32084;42.254;22.744;2023-06-14T04:45:38;94961.00;;;17.65;100.00
46379;BME280;32084;42.254;22.744;2023-06-14T04:48:05;94964.09;;;17.75;100.00
46379;BME280;32084;42.254;22.744;2023-06-14T04:50:32;94964.53;;;17.72;100.00
46379;BME280;32084;42.254;22.744;2023-06-14T04:52:58;94977.44;;;17.84;100.00
46379;BME280;32084;42.254;22.744;2023-06-14T04:55:25;94978.88;;;17.80;100.00
46379;BME280;32084;42.254;22.744;2023-06-14T04:57:52;94978.69;;;17.88;100.00
46379;BME280;32084;42.254;22.744;2023-06-14T05:00:19;94986.16;;;17.99;100.00
46379;BME280;32084;42.254;22.744;2023-06-14T05:02:45;94976.19;;;17.93;100.00
46379;BME280;32084;42.254;22.744;2023-06-14T05:05:12;94989.91;;;17.91;100.00
46379;BME280;32084;42.254;22.744;2023-06-14T05:07:39;94992.41;;;17.93;100.00
46379;BME280;32084;42.254;22.744;2023-06-14T05:10:05;94999.91;;;17.84;100.00
46379;BME280;32084;42.254;22.744;2023-06-14T05:12:31;94995.13;;;17.93;100.00
46379;BME280;32084;42.254;22.744;2023-06-14T05:14:58;94997.81;;;18.00;100.00
46379;BME280;32084;42.254;22.744;2023-06-14T05:17:27;94998.22;;;18.03;100.00
46379;BME280;32084;42.254;22.744;2023-06-14T05:19:53;95008.16;;;18.23;100.00
46379;BME280;32084;42.254;22.744;2023-06-14T05:22:21;95009.22;;;18.22;100.00
46379;BME280;32084;42.254;22.744;2023-06-14T05:24:48;95009.41;;;18.27;100.00
46379;BME280;32084;42.254;22.744;2023-06-14T05:27:14;95022.47;;;18.43;100.00
46379;BME280;32084;42.254;22.744;2023-06-14T05:29:40;95015.97;;;18.58;100.00
46379;BME280;32084;42.254;22.744;2023-06-14T05:32:06;95021.34;;;18.71;100.00
46379;BME280;32084;42.254;22.744;2023-06-14T05:34:32;95020.69;;;18.76;100.00
46379;BME280;32084;42.254;22.744;2023-06-14T05:36:58;95020.94;;;18.67;100.00
46379;BME280;32084;42.254;22.744;2023-06-14T05:39:24;95018.47;;;18.59;100.00
46379;BME280;32084;42.254;22.744;2023-06-14T05:41:50;95011.81;;;18.55;100.00
46379;BME280;32084;42.254;22.744;2023-06-14T05:44:16;95005.56;;;18.61;100.00
46379;BME280;32084;42.254;22.744;2023-06-14T05:46:43;95011.78;;;18.62;100.00
46379;BME280;32084;42.254;22.744;2023-06-14T05:49:09;95016.81;;;18.51;100.00
46379;BME280;32084;42.254;22.744;2023-06-14T05:51:35;95023.81;;;18.86;100.00
46379;BME280;32084;42.254;22.744;2023-06-14T05:54:01;95027.84;;;19.40;99.98
46379;BME280;32084;42.254;22.744;2023-06-14T05:56:27;95022.81;;;20.01;98.38
46379;BME280;32084;42.254;22.744;2023-06-14T05:58:53;95024.06;;;20.23;97.14
46379;BME280;32084;42.254;22.744;2023-06-14T06:01:19;95026.59;;;20.18;97.18
46379;BME280;32084;42.254;22.744;2023-06-14T06:03:46;95025.59;;;20.38;93.79
46379;BME280;32084;42.254;22.744;2023-06-14T06:06:12;95029.22;;;20.87;94.05
46379;BME280;32084;42.254;22.744;2023-06-14T06:08:38;95035.06;;;21.21;91.31
46379;BME280;32084;42.254;22.744;2023-06-14T06:11:04;95034.22;;;21.51;89.37
46379;BME280;32084;42.254;22.744;2023-06-14T06:13:30;95030.47;;;21.63;86.47
46379;BME280;32084;42.254;22.744;2023-06-14T06:15:56;95033.78;;;21.54;87.66
46379;BME280;32084;42.254;22.744;2023-06-14T06:18:22;95030.56;;;21.26;89.82
46379;BME280;32084;42.254;22.744;2023-06-14T06:20:48;95038.97;;;21.25;87.05
46379;BME280;32084;42.254;22.744;2023-06-14T06:23:14;95024.03;;;21.16;86.62
46379;BME280;32084;42.254;22.744;2023-06-14T06:25:40;95022.69;;;21.06;87.89
46379;BME280;32084;42.254;22.744;2023-06-14T06:28:07;95029.50;;;21.28;86.38
46379;BME280;32084;42.254;22.744;2023-06-14T06:30:33;95029.69;;;21.75;85.55
46379;BME280;32084;42.254;22.744;2023-06-14T06:32:59;95025.34;;;21.97;83.64
46379;BME280;32084;42.254;22.744;2023-06-14T06:35:25;95028.94;;;21.56;86.57
46379;BME280;32084;42.254;22.744;2023-06-14T06:37:51;95028.72;;;21.81;86.04
46379;BME280;32084;42.254;22.744;2023-06-14T06:40:18;95026.53;;;22.25;87.91
46379;BME280;32084;42.254;22.744;2023-06-14T06:42:44;95025.09;;;21.99;86.82
46379;BME280;32084;42.254;22.744;2023-06-14T06:45:10;95027.91;;;21.80;84.00
46379;BME280;32084;42.254;22.744;2023-06-14T06:47:37;95023.66;;;21.84;85.05
46379;BME280;32084;42.254;22.744;2023-06-14T06:50:03;95026.19;;;22.21;85.33
46379;BME280;32084;42.254;22.744;2023-06-14T06:52:29;95034.13;;;22.47;84.60
46379;BME280;32084;42.254;22.744;2023-06-14T06:54:55;95030.22;;;22.42;84.20
46379;BME280;32084;42.254;22.744;2023-06-14T06:57:22;95034.25;;;22.28;82.56
46379;BME280;32084;42.254;22.744;2023-06-14T06:59:51;95026.50;;;22.01;84.36
46379;BME280;32084;42.254;22.744;2023-06-14T07:02:17;95023.34;;;22.05;85.81
46379;BME280;32084;42.254;22.744;2023-06-14T07:04:43;95030.66;;;22.63;79.13
46379;BME280;32084;42.254;22.744;2023-06-14T07:07:10;95026.50;;;22.84;79.61
46379;BME280;32084;42.254;22.744;2023-06-14T07:09:36;95031.66;;;22.86;83.36
46379;BME280;32084;42.254;22.744;2023-06-14T07:12:02;95033.94;;;22.89;83.02
46379;BME280;32084;42.254;22.744;2023-06-14T07:14:28;95019.63;;;23.22;82.42
46379;BME280;32084;42.254;22.744;2023-06-14T07:16:55;95024.16;;;23.45;81.22
46379;BME280;32084;42.254;22.744;2023-06-14T07:19:22;95019.69;;;23.56;77.06
46379;BME280;32084;42.254;22.744;2023-06-14T07:21:48;95021.66;;;23.89;79.66
46379;BME280;32084;42.254;22.744;2023-06-14T07:24:14;95025.31;;;23.95;76.06
46379;BME280;32084;42.254;22.744;2023-06-14T07:26:40;95033.44;;;23.78;74.65
46379;BME280;32084;42.254;22.744;2023-06-14T07:29:06;95029.19;;;23.82;80.45
46379;BME280;32084;42.254;22.744;2023-06-14T07:31:32;95027.56;;;23.69;75.64
46379;BME280;32084;42.254;22.744;2023-06-14T07:33:58;95031.63;;;23.67;74.34
46379;BME280;32084;42.254;22.744;2023-06-14T07:36:24;95033.44;;;23.61;74.02
46379;BME280;32084;42.254;22.744;2023-06-14T07:38:50;95036.56;;;23.82;76.37
46379;BME280;32084;42.254;22.744;2023-06-14T07:41:17;95041.84;;;23.88;75.71
46379;BME280;32084;42.254;22.744;2023-06-14T07:43:43;95038.38;;;23.93;77.04
46379;BME280;32084;42.254;22.744;2023-06-14T07:46:09;95037.72;;;24.20;78.54
46379;BME280;32084;42.254;22.744;2023-06-14T07:48:35;95037.78;;;24.42;77.11
46379;BME280;32084;42.254;22.744;2023-06-14T07:51:01;95030.91;;;24.39;77.58
46379;BME280;32084;42.254;22.744;2023-06-14T07:53:28;95038.19;;;24.33;75.42
46379;BME280;32084;42.254;22.744;2023-06-14T07:55:54;95034.44;;;24.40;75.78
46379;BME280;32084;42.254;22.744;2023-06-14T07:58:20;95035.94;;;24.64;77.55
46379;BME280;32084;42.254;22.744;2023-06-14T08:00:46;95039.88;;;24.73;77.16
46379;BME280;32084;42.254;22.744;2023-06-14T08:03:13;95030.94;;;24.78;74.73
46379;BME280;32084;42.254;22.744;2023-06-14T08:05:39;95032.34;;;25.03;73.58
46379;BME280;32084;42.254;22.744;2023-06-14T08:08:05;95028.81;;;25.07;72.72
46379;BME280;32084;42.254;22.744;2023-06-14T08:10:32;95036.91;;;24.97;75.74
46379;BME280;32084;42.254;22.744;2023-06-14T08:12:58;95030.00;;;24.89;75.06
46379;BME280;32084;42.254;22.744;2023-06-14T08:15:24;95034.81;;;25.04;75.30
46379;BME280;32084;42.254;22.744;2023-06-14T08:17:50;95048.28;;;25.11;74.65
46379;BME280;32084;42.254;22.744;2023-06-14T08:20:17;95042.88;;;24.72;73.61
46379;BME280;32084;42.254;22.744;2023-06-14T08:22:43;95033.81;;;24.32;75.02
46379;BME280;32084;42.254;22.744;2023-06-14T08:25:09;95039.97;;;24.23;78.67
46379;BME280;32084;42.254;22.744;2023-06-14T08:27:36;95036.88;;;24.53;76.89
46379;BME280;32084;42.254;22.744;2023-06-14T08:30:03;95032.16;;;24.87;75.22
46379;BME280;32084;42.254;22.744;2023-06-14T08:32:29;95034.06;;;25.09;73.44
46379;BME280;32084;42.254;22.744;2023-06-14T08:34:55;95039.19;;;25.05;74.52
46379;BME280;32084;42.254;22.744;2023-06-14T08:37:21;95031.88;;;24.89;73.24
46379;BME280;32084;42.254;22.744;2023-06-14T08:39:47;95036.53;;;25.10;68.97
46379;BME280;32084;42.254;22.744;2023-06-14T08:42:14;95029.91;;;24.84;68.68
46379;BME280;32084;42.254;22.744;2023-06-14T08:44:40;95032.97;;;24.88;69.47
46379;BME280;32084;42.254;22.744;2023-06-14T08:47:07;95025.34;;;25.12;69.19
46379;BME280;32084;42.254;22.744;2023-06-14T08:49:34;95024.63;;;25.22;66.10
46379;BME280;32084;42.254;22.744;2023-06-14T08:52:02;95012.03;;;25.43;69.88
46379;BME280;32084;42.254;22.744;2023-06-14T08:54:28;95015.09;;;25.46;70.04
46379;BME280;32084;42.254;22.744;2023-06-14T08:56:58;95013.41;;;25.45;70.22
46379;BME280;32084;42.254;22.744;2023-06-14T08:59:27;95019.75;;;25.51;69.87
46379;BME280;32084;42.254;22.744;2023-06-14T09:01:54;95016.88;;;25.63;70.32
46379;BME280;32084;42.254;22.744;2023-06-14T09:04:20;95010.69;;;25.45;66.60
46379;BME280;32084;42.254;22.744;2023-06-14T09:06:47;95013.56;;;25.61;69.25
46379;BME280;32084;42.254;22.744;2023-06-14T09:09:19;95014.16;;;25.95;68.31
46379;BME280;32084;42.254;22.744;2023-06-14T09:11:46;95005.91;;;25.90;67.97
46379;BME280;32084;42.254;22.744;2023-06-14T09:14:12;94998.69;;;25.79;68.29
46379;BME280;32084;42.254;22.744;2023-06-14T09:16:38;95003.22;;;25.95;66.40
46379;BME280;32084;42.254;22.744;2023-06-14T09:19:04;95003.97;;;26.23;69.43
46379;BME280;32084;42.254;22.744;2023-06-14T09:21:33;94999.25;;;26.13;66.80
46379;BME280;32084;42.254;22.744;2023-06-14T09:24:01;94998.03;;;25.94;64.47
46379;BME280;32084;42.254;22.744;2023-06-14T09:26:27;95001.16;;;25.80;67.55
46379;BME280;32084;42.254;22.744;2023-06-14T09:28:54;94997.47;;;25.92;69.29
46379;BME280;32084;42.254;22.744;2023-06-14T09:31:21;94993.34;;;26.26;67.95
46379;BME280;32084;42.254;22.744;2023-06-14T09:33:48;94995.16;;;25.83;65.59
46379;BME280;32084;42.254;22.744;2023-06-14T09:36:18;94992.50;;;25.34;67.41
46379;BME280;32084;42.254;22.744;2023-06-14T09:43:59;94992.78;;;25.10;68.38
46379;BME280;32084;42.254;22.744;2023-06-14T09:46:26;94982.69;;;25.38;69.16
46379;BME280;32084;42.254;22.744;2023-06-14T09:48:53;94983.44;;;25.61;70.15
46379;BME280;32084;42.254;22.744;2023-06-14T09:51:19;94975.56;;;25.37;71.82
46379;BME280;32084;42.254;22.744;2023-06-14T09:53:49;94979.50;;;25.46;72.00
46379;BME280;32084;42.254;22.744;2023-06-14T09:56:28;94974.38;;;25.55;74.48
46379;BME280;32084;42.254;22.744;2023-06-14T09:58:55;94976.69;;;25.41;69.58
46379;BME280;32084;42.254;22.744;2023-06-14T10:01:25;94975.44;;;25.27;72.82
46379;BME280;32084;42.254;22.744;2023-06-14T10:03:55;94970.66;;;25.17;72.81
46379;BME280;32084;42.254;22.744;2023-06-14T10:06:22;94974.19;;;25.12;74.47
46379;BME280;32084;42.254;22.744;2023-06-14T10:08:50;94961.59;;;25.33;73.66
46379;BME280;32084;42.254;22.744;2023-06-14T10:11:18;94957.34;;;25.80;68.46
46379;BME280;32084;42.254;22.744;2023-06-14T10:13:44;94954.44;;;26.29;69.70
46379;BME280;32084;42.254;22.744;2023-06-14T10:16:19;94952.34;;;26.04;70.51
46379;BME280;32084;42.254;22.744;2023-06-14T10:18:51;94942.25;;;25.78;72.32
46379;BME280;32084;42.254;22.744;2023-06-14T10:24:07;94941.00;;;25.26;71.75
46379;BME280;32084;42.254;22.744;2023-06-14T10:26:33;94950.13;;;25.14;70.83
46379;BME280;32084;42.254;22.744;2023-06-14T10:29:00;94946.78;;;25.07;69.70
46379;BME280;32084;42.254;22.744;2023-06-14T10:31:43;94942.16;;;24.86;66.35
46379;BME280;32084;42.254;22.744;2023-06-14T10:34:10;94948.72;;;24.85;68.00
46379;BME280;32084;42.254;22.744;2023-06-14T10:36:38;94953.84;;;24.81;69.55
46379;BME280;32084;42.254;22.744;2023-06-14T10:39:07;94952.16;;;24.75;70.31
46379;BME280;32084;42.254;22.744;2023-06-14T10:41:34;94957.81;;;24.68;71.55
46379;BME280;32084;42.254;22.744;2023-06-14T10:46:39;94969.03;;;24.50;73.87
46379;BME280;32084;42.254;22.744;2023-06-14T10:49:06;94963.41;;;24.40;75.15
46379;BME280;32084;42.254;22.744;2023-06-14T10:51:39;94966.78;;;24.25;79.32
46379;BME280;32084;42.254;22.744;2023-06-14T10:54:12;94972.94;;;24.15;80.49
46379;BME280;32084;42.254;22.744;2023-06-14T10:56:48;94973.00;;;24.03;83.05
46379;BME280;32084;42.254;22.744;2023-06-14T10:59:14;94981.13;;;23.81;82.37
46379;BME280;32084;42.254;22.744;2023-06-14T11:01:55;94968.69;;;23.56;82.94
46379;BME280;32084;42.254;22.744;2023-06-14T11:04:23;94970.97;;;23.31;83.39
46379;BME280;32084;42.254;22.744;2023-06-14T11:06:53;94971.22;;;22.89;82.08
46379;BME280;32084;42.254;22.744;2023-06-14T11:09:38;94959.72;;;22.58;80.54
46379;BME280;32084;42.254;22.744;2023-06-14T11:12:10;94960.00;;;22.45;80.87
46379;BME280;32084;42.254;22.744;2023-06-14T11:14:39;94953.38;;;22.40;77.12
46379;BME280;32084;42.254;22.744;2023-06-14T11:17:05;94941.50;;;22.23;78.57
46379;BME280;32084;42.254;22.744;2023-06-14T11:19:32;94937.50;;;22.14;81.70
46379;BME280;32084;42.254;22.744;2023-06-14T11:21:58;94940.72;;;22.11;80.42
46379;BME280;32084;42.254;22.744;2023-06-14T11:24:24;94933.25;;;22.06;83.14
46379;BME280;32084;42.254;22.744;2023-06-14T11:26:51;94920.69;;;22.17;81.57
46379;BME280;32084;42.254;22.744;2023-06-14T11:29:17;94914.16;;;22.41;78.88
46379;BME280;32084;42.254;22.744;2023-06-14T11:31:46;94909.13;;;22.62;78.44
46379;BME280;32084;42.254;22.744;2023-06-14T11:34:12;94916.31;;;22.68;77.44
46379;BME280;32084;42.254;22.744;2023-06-14T11:36:39;94902.22;;;23.00;78.21
46379;BME280;32084;42.254;22.744;2023-06-14T11:39:06;94910.97;;;23.65;77.97
46379;BME280;32084;42.254;22.744;2023-06-14T11:41:39;94909.59;;;24.18;76.02
46379;BME280;32084;42.254;22.744;2023-06-14T11:44:05;94910.00;;;24.27;70.67
46379;BME280;32084;42.254;22.744;2023-06-14T11:46:32;94907.78;;;24.46;68.68
46379;BME280;32084;42.254;22.744;2023-06-14T11:48:58;94906.53;;;24.53;71.55
46379;BME280;32084;42.254;22.744;2023-06-14T11:51:24;94896.41;;;24.54;69.75
46379;BME280;32084;42.254;22.744;2023-06-14T11:53:50;94907.91;;;24.34;66.00
46379;BME280;32084;42.254;22.744;2023-06-14T11:56:16;94895.72;;;24.03;65.75
46379;BME280;32084;42.254;22.744;2023-06-14T11:58:43;94897.09;;;23.83;62.48
46379;BME280;32084;42.254;22.744;2023-06-14T12:01:09;94903.50;;;23.77;63.70
46379;BME280;32084;42.254;22.744;2023-06-14T12:03:36;94899.03;;;23.71;64.82
46379;BME280;32084;42.254;22.744;2023-06-14T12:06:04;94897.22;;;23.76;68.68
46379;BME280;32084;42.254;22.744;2023-06-14T12:08:36;94888.31;;;23.81;67.71
46379;BME280;32084;42.254;22.744;2023-06-14T12:11:12;94893.34;;;23.89;68.88
46379;BME280;32084;42.254;22.744;2023-06-14T12:13:39;94894.34;;;24.00;65.94
46379;BME280;32084;42.254;22.744;2023-06-14T12:16:07;94891.41;;;24.07;65.82
46379;BME280;32084;42.254;22.744;2023-06-14T12:18:36;94887.06;;;23.89;66.16
46379;BME280;32084;42.254;22.744;2023-06-14T12:21:09;94886.06;;;23.78;60.83
46379;BME280;32084;42.254;22.744;2023-06-14T12:23:39;94883.19;;;23.85;63.21
46379;BME280;32084;42.254;22.744;2023-06-14T12:26:05;94881.84;;;23.87;62.62
46379;BME280;32084;42.254;22.744;2023-06-14T12:28:31;94881.59;;;23.89;65.14
46379;BME280;32084;42.254;22.744;2023-06-14T12:30:57;94877.19;;;24.05;65.47
46379;BME280;32084;42.254;22.744;2023-06-14T12:33:24;94870.81;;;23.99;68.60
46379;BME280;32084;42.254;22.744;2023-06-14T12:35:51;94869.81;;;24.05;67.34
46379;BME280;32084;42.254;22.744;2023-06-14T12:38:20;94858.03;;;24.44;66.84
46379;BME280;32084;42.254;22.744;2023-06-14T12:40:47;94860.63;;;24.78;67.28
46379;BME280;32084;42.254;22.744;2023-06-14T12:43:13;94861.34;;;24.95;66.25
46379;BME280;32084;42.254;22.744;2023-06-14T12:45:39;94851.78;;;24.98;70.82
46379;BME280;32084;42.254;22.744;2023-06-14T12:48:05;94851.84;;;25.03;69.74
46379;BME280;32084;42.254;22.744;2023-06-14T12:50:31;94856.31;;;24.87;67.66
46379;BME280;32084;42.254;22.744;2023-06-14T12:52:57;94845.94;;;24.89;68.73
46379;BME280;32084;42.254;22.744;2023-06-14T12:55:23;94846.69;;;25.11;69.27
46379;BME280;32084;42.254;22.744;2023-06-14T12:57:49;94846.44;;;25.13;66.90
46379;BME280;32084;42.254;22.744;2023-06-14T13:00:17;94847.56;;;25.12;65.25